createdAt,value
2022-08-31T00:01:33.547Z,31.77
2022-08-31T00:04:03.634Z,32.14
2022-08-31T00:06:32.648Z,32.04
2022-08-31T00:09:01.477Z,31.51
2022-08-31T00:11:31.166Z,31.68
2022-08-31T00:14:03.150Z,31.12
2022-08-31T00:16:34.094Z,31.18
2022-08-31T00:19:03.390Z,31.60
2022-08-31T00:21:31.831Z,31.77
2022-08-31T00:24:00.352Z,31.93
2022-08-31T00:26:28.548Z,31.96
2022-08-31T00:28:56.666Z,31.74
2022-08-31T00:31:26.472Z,31.12
2022-08-31T00:33:55.542Z,31.92
2022-08-31T00:36:25.882Z,31.49
2022-08-31T00:38:56.940Z,31.55
2022-08-31T00:41:27.390Z,31.58
2022-08-31T00:43:58.209Z,31.61
2022-08-31T00:46:29.698Z,31.29
2022-08-31T00:49:02.114Z,31.51
2022-08-31T00:51:32.028Z,31.56
2022-08-31T00:54:01.557Z,31.46
2022-08-31T00:56:31.462Z,31.97
2022-08-31T00:59:01.176Z,31.85
2022-08-31T01:01:31.031Z,31.98
2022-08-31T01:04:00.232Z,31.85
2022-08-31T01:06:28.695Z,31.86
2022-08-31T01:08:59.508Z,31.47
2022-08-31T01:11:28.050Z,32.07
2022-08-31T01:13:56.364Z,32.25
2022-08-31T01:16:27.938Z,31.67
2022-08-31T01:18:57.721Z,30.48
2022-08-31T01:21:29.859Z,31.86
2022-08-31T01:24:01.864Z,31.96
2022-08-31T01:26:31.574Z,32.43
2022-08-31T01:29:05.592Z,32.39
2022-08-31T01:31:36.451Z,32.30
2022-08-31T01:34:05.522Z,32.30
2022-08-31T01:36:34.355Z,32.24
2022-08-31T01:39:04.647Z,31.88
2022-08-31T01:41:33.111Z,32.37
2022-08-31T01:44:01.199Z,32.49
2022-08-31T01:46:29.461Z,32.43
2022-08-31T01:48:57.721Z,32.49
2022-08-31T01:51:25.775Z,32.44
2022-08-31T01:53:54.647Z,32.27
2022-08-31T01:56:26.530Z,31.77
2022-08-31T01:58:54.788Z,32.70
2022-08-31T02:01:33.784Z,32.15
2022-08-31T02:04:08.583Z,32.16
2022-08-31T02:06:37.145Z,32.35
2022-08-31T02:09:07.380Z,32.36
2022-08-31T02:11:37.237Z,32.47
2022-08-31T02:14:05.891Z,32.51
2022-08-31T02:16:34.064Z,32.61
2022-08-31T02:19:02.370Z,32.82
2022-08-31T02:21:30.496Z,32.71
2022-08-31T02:23:58.547Z,32.65
2022-08-31T02:26:27.015Z,33.08
2022-08-31T02:28:56.569Z,32.42
2022-08-31T02:31:24.637Z,33.05
2022-08-31T02:33:52.865Z,32.81
2022-08-31T02:36:20.981Z,32.86
2022-08-31T02:38:49.151Z,33.01
2022-08-31T02:41:17.780Z,32.75
2022-08-31T02:43:46.258Z,32.83
2022-08-31T02:46:15.796Z,32.35
2022-08-31T02:48:44.182Z,32.87
2022-08-31T02:51:12.902Z,32.36
2022-08-31T02:53:41.116Z,32.34
2022-08-31T02:56:13.119Z,32.37
2022-08-31T02:58:41.716Z,32.52
2022-08-31T03:01:10.338Z,32.59
2022-08-31T03:03:40.553Z,31.78
2022-08-31T03:06:12.035Z,31.96
2022-08-31T03:08:42.421Z,32.32
2022-08-31T03:11:11.222Z,32.33
2022-08-31T03:13:40.145Z,32.30
2022-08-31T03:16:08.785Z,32.38
2022-08-31T03:18:36.920Z,32.59
2022-08-31T03:21:06.873Z,32.56
2022-08-31T03:23:35.249Z,33.61
2022-08-31T03:26:05.601Z,33.63
2022-08-31T03:28:34.589Z,33.45
2022-08-31T03:31:02.938Z,33.96
2022-08-31T03:33:31.136Z,34.05
2022-08-31T03:35:59.399Z,33.69
2022-08-31T03:38:29.235Z,33.22
2022-08-31T03:40:57.565Z,33.53
2022-08-31T03:43:25.895Z,33.37
2022-08-31T03:45:55.426Z,33.09
2022-08-31T03:48:24.215Z,32.97
2022-08-31T03:50:52.381Z,32.81
2022-08-31T03:53:23.048Z,32.38
2022-08-31T03:55:54.119Z,32.31
2022-08-31T03:58:22.376Z,32.55
2022-08-31T04:00:50.511Z,32.36
2022-08-31T04:03:18.870Z,32.15
2022-08-31T04:05:47.410Z,32.09
2022-08-31T04:08:16.485Z,32.20
2022-08-31T04:10:46.141Z,31.55
2022-08-31T04:13:15.958Z,31.79
2022-08-31T04:15:44.231Z,31.96
2022-08-31T04:18:14.007Z,31.36
2022-08-31T04:20:42.379Z,31.69
2022-08-31T04:23:11.327Z,31.23
2022-08-31T04:25:40.458Z,31.39
2022-08-31T04:28:09.202Z,31.18
2022-08-31T04:30:43.879Z,30.15
2022-08-31T04:33:12.288Z,30.95
2022-08-31T04:35:41.635Z,30.75
2022-08-31T04:38:10.333Z,30.68
2022-08-31T04:40:41.289Z,30.96
2022-08-31T04:43:09.845Z,30.80
2022-08-31T04:45:44.596Z,29.74
2022-08-31T04:48:14.696Z,30.25
2022-08-31T04:50:43.301Z,30.20
2022-08-31T04:53:12.454Z,30.12
2022-08-31T04:55:41.549Z,30.01
2022-08-31T04:58:09.777Z,30.07
2022-08-31T05:00:38.391Z,30.13
2022-08-31T05:03:08.043Z,29.71
2022-08-31T05:05:38.874Z,29.41
2022-08-31T05:08:07.500Z,29.72
2022-08-31T05:10:35.915Z,29.10
2022-08-31T05:13:04.056Z,28.94
2022-08-31T05:15:32.329Z,28.61
2022-08-31T05:18:01.006Z,28.53
2022-08-31T05:20:30.571Z,28.02
2022-08-31T05:22:58.859Z,28.56
2022-08-31T05:25:27.498Z,28.55
2022-08-31T05:27:56.512Z,28.47
2022-08-31T05:30:25.377Z,28.75
2022-08-31T05:32:53.490Z,28.72
2022-08-31T05:35:21.719Z,29.01
2022-08-31T05:37:52.710Z,28.04
2022-08-31T05:40:21.016Z,28.46
2022-08-31T05:42:49.315Z,28.15
2022-08-31T05:45:18.896Z,27.74
2022-08-31T05:47:47.094Z,27.34
2022-08-31T05:50:15.244Z,27.45
2022-08-31T05:52:43.581Z,26.93
2022-08-31T05:55:13.191Z,26.38
2022-08-31T05:57:41.319Z,26.41
2022-08-31T06:00:10.960Z,26.00
2022-08-31T06:02:40.219Z,26.47
2022-08-31T06:05:08.926Z,26.30
2022-08-31T06:07:37.413Z,26.36
2022-08-31T06:10:06.464Z,25.96
2022-08-31T06:12:39.122Z,25.06
2022-08-31T06:15:08.261Z,24.75
2022-08-31T06:17:36.903Z,24.54
2022-08-31T06:20:07.212Z,24.21
2022-08-31T06:22:36.134Z,24.37
2022-08-31T06:25:06.233Z,23.57
2022-08-31T06:27:38.926Z,23.48
2022-08-31T06:30:08.667Z,23.55
2022-08-31T06:32:36.767Z,23.23
2022-08-31T06:35:05.519Z,22.64
2022-08-31T06:37:33.857Z,22.35
2022-08-31T06:40:04.337Z,22.60
2022-08-31T06:42:32.446Z,21.63
2022-08-31T06:45:02.156Z,21.06
2022-08-31T06:47:30.340Z,20.78
2022-08-31T06:49:58.424Z,20.60
2022-08-31T06:52:27.346Z,20.46
2022-08-31T06:54:55.544Z,19.19
2022-08-31T06:57:24.043Z,18.72
2022-08-31T06:59:53.915Z,18.44
2022-08-31T07:02:23.418Z,17.47
2022-08-31T07:04:51.576Z,18.08
2022-08-31T07:07:19.851Z,18.23
2022-08-31T07:09:48.122Z,18.59
2022-08-31T07:12:16.350Z,17.79
2022-08-31T07:14:54.705Z,18.32
2022-08-31T07:17:25.065Z,17.40
2022-08-31T07:19:53.424Z,18.23
2022-08-31T07:22:21.600Z,18.49
2022-08-31T07:24:49.922Z,19.33
2022-08-31T07:27:18.627Z,19.27
2022-08-31T07:29:47.466Z,19.32
2022-08-31T07:32:17.537Z,18.33
2022-08-31T07:34:50.477Z,17.82
2022-08-31T07:37:41.156Z,17.60
2022-08-31T07:40:27.970Z,17.74
2022-08-31T07:42:56.452Z,18.02
2022-08-31T07:45:29.166Z,17.42
2022-08-31T07:48:01.214Z,16.34
2022-08-31T07:50:31.736Z,16.07
2022-08-31T07:53:00.447Z,17.11
2022-08-31T07:55:29.456Z,18.18
2022-08-31T07:57:58.248Z,19.43
2022-08-31T08:00:29.013Z,19.94
2022-08-31T08:03:07.483Z,20.23
2022-08-31T08:05:38.878Z,20.23
2022-08-31T08:08:13.566Z,20.67
2022-08-31T08:10:51.911Z,20.55
2022-08-31T08:13:21.300Z,20.33
2022-08-31T08:15:52.099Z,20.29
2022-08-31T08:18:21.258Z,20.37
2022-08-31T08:20:52.351Z,20.25
2022-08-31T08:23:28.434Z,19.95
2022-08-31T08:26:01.335Z,19.44
2022-08-31T08:28:45.972Z,18.79
2022-08-31T08:31:15.926Z,18.21
2022-08-31T08:33:45.361Z,17.46
2022-08-31T08:36:18.577Z,17.02
2022-08-31T08:38:49.004Z,17.81
2022-08-31T08:41:20.285Z,17.76
2022-08-31T08:43:52.768Z,17.97
2022-08-31T08:46:37.860Z,18.00
2022-08-31T08:49:15.896Z,17.43
2022-08-31T08:51:46.970Z,16.91
2022-08-31T08:54:24.027Z,15.29
2022-08-31T08:56:52.191Z,16.71
2022-08-31T08:59:20.788Z,16.76
2022-08-31T09:01:51.237Z,15.01
2022-08-31T09:04:23.296Z,14.07
2022-08-31T09:07:02.742Z,14.21
2022-08-31T09:09:36.457Z,15.50
2022-08-31T09:12:24.925Z,16.01
2022-08-31T09:15:11.375Z,16.32
2022-08-31T09:17:43.624Z,15.67
2022-08-31T09:20:13.377Z,14.31
2022-08-31T09:22:48.803Z,13.60
2022-08-31T09:25:20.349Z,13.58
2022-08-31T09:27:57.331Z,14.37
2022-08-31T09:30:39.999Z,13.42
2022-08-31T09:33:09.746Z,12.83
2022-08-31T09:35:41.445Z,13.11
2022-08-31T09:38:18.149Z,13.81
2022-08-31T09:40:48.637Z,13.07
2022-08-31T09:43:22.939Z,10.49
2022-08-31T09:46:02.633Z,8.60
2022-08-31T09:48:44.575Z,8.87
2022-08-31T09:51:22.564Z,10.13
2022-08-31T09:54:11.663Z,11.11
2022-08-31T09:56:55.403Z,8.82
2022-08-31T09:59:34.225Z,10.21
2022-08-31T10:02:05.988Z,10.51
2022-08-31T10:04:38.329Z,9.92
2022-08-31T10:07:14.227Z,9.10
2022-08-31T10:09:47.167Z,9.40
2022-08-31T10:12:19.868Z,10.23
2022-08-31T10:14:51.886Z,11.70
2022-08-31T10:17:26.277Z,12.28
2022-08-31T10:20:07.652Z,13.28
2022-08-31T10:22:42.071Z,13.90
2022-08-31T10:25:21.675Z,13.52
2022-08-31T10:27:56.119Z,12.73
2022-08-31T10:30:29.410Z,12.50
2022-08-31T10:33:05.073Z,11.53
2022-08-31T10:35:41.524Z,11.26
2022-08-31T10:38:24.209Z,10.88
2022-08-31T10:41:03.837Z,8.95
2022-08-31T10:43:36.067Z,7.75
2022-08-31T10:46:06.080Z,7.37
2022-08-31T10:48:36.735Z,6.23
2022-08-31T10:51:13.194Z,6.79
2022-08-31T10:53:53.052Z,9.25
2022-08-31T10:56:40.589Z,10.60
2022-08-31T10:59:25.000Z,10.81
2022-08-31T11:02:16.840Z,10.99
2022-08-31T11:04:55.833Z,11.75
2022-08-31T11:07:46.934Z,11.75
2022-08-31T11:10:26.689Z,12.83
2022-08-31T11:13:02.662Z,13.14
2022-08-31T11:15:44.146Z,12.57
2022-08-31T11:18:41.576Z,13.00
2022-08-31T11:21:42.270Z,13.16
2022-08-31T11:24:36.998Z,13.23
2022-08-31T11:27:11.988Z,13.43
2022-08-31T11:29:44.707Z,12.36
2022-08-31T11:32:20.154Z,11.52
2022-08-31T11:34:51.826Z,11.58
2022-08-31T11:37:52.484Z,11.27
2022-08-31T11:41:06.315Z,10.81
2022-08-31T11:43:46.415Z,11.85
2022-08-31T11:46:47.690Z,12.52
2022-08-31T11:49:54.370Z,12.13
2022-08-31T11:52:43.610Z,12.00
2022-08-31T11:55:21.334Z,11.92
2022-08-31T11:58:26.186Z,12.55
2022-08-31T12:01:01.794Z,13.63
2022-08-31T12:03:53.234Z,13.07
2022-08-31T12:07:07.587Z,12.14
2022-08-31T12:10:00.415Z,11.03
2022-08-31T12:12:43.915Z,11.72
2022-08-31T12:15:22.876Z,11.39
2022-08-31T12:18:06.137Z,13.39
2022-08-31T12:21:13.579Z,14.24
2022-08-31T12:23:49.417Z,14.83
2022-08-31T12:26:27.391Z,13.91
2022-08-31T12:29:26.995Z,13.36
2022-08-31T12:32:20.816Z,13.49
2022-08-31T12:34:53.895Z,14.30
2022-08-31T12:37:28.821Z,13.94
2022-08-31T12:40:19.990Z,13.90
2022-08-31T12:42:59.449Z,13.94
2022-08-31T12:45:45.359Z,13.32
2022-08-31T12:48:22.664Z,13.13
2022-08-31T12:50:57.506Z,12.74
2022-08-31T12:54:03.177Z,13.50
2022-08-31T12:56:37.079Z,13.79
2022-08-31T12:59:17.634Z,13.31
2022-08-31T13:01:48.186Z,13.26
2022-08-31T13:04:18.345Z,13.56
2022-08-31T13:06:48.471Z,13.98
2022-08-31T13:09:29.123Z,13.60
2022-08-31T13:11:59.156Z,13.64
2022-08-31T13:14:29.559Z,13.89
2022-08-31T13:17:01.951Z,13.69
2022-08-31T13:19:33.340Z,14.02
2022-08-31T13:22:01.915Z,13.23
2022-08-31T13:24:33.652Z,13.61
2022-08-31T13:27:08.204Z,12.84
2022-08-31T13:29:44.267Z,13.17
2022-08-31T13:32:14.962Z,13.47
2022-08-31T13:34:43.210Z,13.16
2022-08-31T13:37:15.509Z,13.69
2022-08-31T13:39:47.015Z,13.69
2022-08-31T13:42:28.536Z,13.41
2022-08-31T13:45:00.467Z,13.65
2022-08-31T13:47:32.084Z,14.02
2022-08-31T13:50:07.391Z,13.95
2022-08-31T13:52:37.120Z,14.21
2022-08-31T13:55:09.408Z,14.20
2022-08-31T13:57:38.514Z,14.17
2022-08-31T14:00:29.622Z,13.43
2022-08-31T14:03:01.774Z,14.55
2022-08-31T14:05:33.414Z,14.38
2022-08-31T14:08:03.915Z,14.60
2022-08-31T14:10:36.302Z,14.35
2022-08-31T14:13:10.205Z,15.15
2022-08-31T14:15:42.302Z,15.03
2022-08-31T14:18:25.321Z,14.37
2022-08-31T14:21:23.181Z,14.71
2022-08-31T14:23:54.242Z,15.09
2022-08-31T14:26:29.114Z,15.12
2022-08-31T14:29:00.446Z,14.88
2022-08-31T14:31:32.834Z,14.64
2022-08-31T14:34:23.261Z,14.30
2022-08-31T14:36:57.648Z,15.00
2022-08-31T14:39:30.082Z,14.98
2022-08-31T14:42:02.097Z,14.75
2022-08-31T14:44:33.560Z,15.15
2022-08-31T14:47:02.474Z,15.39
2022-08-31T14:49:36.046Z,15.10
2022-08-31T14:52:06.956Z,15.21
2022-08-31T14:54:37.545Z,14.99
2022-08-31T14:57:12.546Z,14.79
2022-08-31T14:59:43.498Z,14.91
2022-08-31T15:02:12.988Z,14.06
2022-08-31T15:04:45.966Z,14.63
2022-08-31T15:07:15.925Z,14.56
2022-08-31T15:09:47.806Z,14.60
2022-08-31T15:12:20.208Z,14.79
2022-08-31T15:14:49.900Z,14.79
2022-08-31T15:17:20.706Z,15.19
2022-08-31T15:19:55.373Z,15.33
2022-08-31T15:22:25.771Z,15.65
2022-08-31T15:24:54.937Z,16.27
2022-08-31T15:27:29.252Z,16.19
2022-08-31T15:30:07.718Z,16.51
2022-08-31T15:32:42.245Z,16.84
2022-08-31T15:35:14.348Z,16.71
2022-08-31T15:37:45.065Z,16.99
2022-08-31T15:40:14.024Z,16.99
2022-08-31T15:42:48.587Z,16.69
2022-08-31T15:45:17.266Z,17.31
2022-08-31T15:48:03.051Z,17.33
2022-08-31T15:50:32.755Z,17.62
2022-08-31T15:53:09.022Z,17.43
2022-08-31T15:55:40.610Z,17.36
2022-08-31T15:58:10.703Z,16.63
2022-08-31T16:00:42.085Z,17.30
2022-08-31T16:03:10.634Z,17.67
2022-08-31T16:05:39.973Z,17.21
2022-08-31T16:08:11.408Z,18.04
2022-08-31T16:10:43.307Z,16.53
2022-08-31T16:13:13.495Z,17.00
2022-08-31T16:15:41.588Z,17.26
2022-08-31T16:18:11.434Z,16.71
2022-08-31T16:20:41.158Z,17.24
2022-08-31T16:23:09.226Z,17.53
2022-08-31T16:25:48.441Z,17.40
2022-08-31T16:28:19.713Z,16.89
2022-08-31T16:30:48.142Z,17.82
2022-08-31T16:33:16.265Z,17.49
2022-08-31T16:35:46.060Z,17.42
2022-08-31T16:38:14.809Z,17.78
2022-08-31T16:40:43.216Z,18.00
2022-08-31T16:43:12.071Z,17.55
2022-08-31T16:45:42.527Z,18.14
2022-08-31T16:48:29.793Z,18.21
2022-08-31T16:51:02.443Z,18.44
2022-08-31T16:53:31.213Z,18.66
2022-08-31T16:56:00.060Z,18.52
2022-08-31T16:58:50.538Z,18.72
2022-08-31T17:01:22.067Z,18.73
2022-08-31T17:03:52.394Z,18.77
2022-08-31T17:06:21.145Z,18.92
2022-08-31T17:08:49.433Z,19.27
2022-08-31T17:11:21.231Z,19.00
2022-08-31T17:13:50.213Z,19.35
2022-08-31T17:16:22.255Z,19.13
2022-08-31T17:18:51.729Z,19.72
2022-08-31T17:21:22.450Z,19.67
2022-08-31T17:23:52.575Z,19.88
2022-08-31T17:26:21.446Z,19.81
2022-08-31T17:28:55.019Z,20.17
2022-08-31T17:31:26.468Z,20.23
2022-08-31T17:33:56.391Z,20.32
2022-08-31T17:36:25.665Z,19.99
2022-08-31T17:38:55.245Z,20.54
2022-08-31T17:41:26.692Z,20.49
2022-08-31T17:43:57.382Z,20.88
2022-08-31T17:46:27.753Z,20.71
2022-08-31T17:48:57.173Z,20.49
2022-08-31T17:51:28.141Z,20.42
2022-08-31T17:53:58.028Z,21.10
2022-08-31T17:56:28.695Z,21.02
2022-08-31T17:58:56.773Z,20.87
2022-08-31T18:01:31.042Z,20.76
2022-08-31T18:04:00.642Z,21.42
2022-08-31T18:06:29.386Z,21.54
2022-08-31T18:08:58.979Z,20.97
2022-08-31T18:11:27.998Z,20.85
2022-08-31T18:13:57.339Z,21.05
2022-08-31T18:16:26.886Z,21.39
2022-08-31T18:18:55.324Z,21.83
2022-08-31T18:21:24.669Z,21.52
2022-08-31T18:23:53.868Z,22.11
2022-08-31T18:26:24.201Z,21.79
2022-08-31T18:28:53.414Z,22.48
2022-08-31T18:31:30.441Z,22.51
2022-08-31T18:34:02.758Z,21.31
2022-08-31T18:36:32.145Z,21.49
2022-08-31T18:39:01.812Z,21.69
2022-08-31T18:41:50.494Z,21.38
2022-08-31T18:44:51.221Z,21.39
2022-08-31T18:47:21.278Z,21.27
2022-08-31T18:49:52.337Z,21.49
2022-08-31T18:52:22.758Z,21.40
2022-08-31T18:54:52.469Z,21.19
2022-08-31T18:57:23.082Z,21.28
2022-08-31T18:59:51.531Z,21.37
2022-08-31T19:02:21.507Z,21.32
2022-08-31T19:04:51.802Z,21.01
2022-08-31T19:07:21.649Z,20.98
2022-08-31T19:09:49.912Z,20.91
2022-08-31T19:12:19.604Z,20.99
2022-08-31T19:14:50.601Z,20.88
2022-08-31T19:17:19.750Z,21.26
2022-08-31T19:19:51.196Z,21.74
2022-08-31T19:22:20.327Z,21.99
2022-08-31T19:24:49.731Z,22.19
2022-08-31T19:27:18.289Z,22.77
2022-08-31T19:29:46.377Z,22.86
2022-08-31T19:32:14.786Z,22.70
2022-08-31T19:34:44.137Z,23.32
2022-08-31T19:37:15.656Z,23.13
2022-08-31T19:39:45.789Z,23.09
2022-08-31T19:42:16.655Z,23.12
2022-08-31T19:44:55.917Z,23.46
2022-08-31T19:47:38.907Z,23.54
2022-08-31T19:50:13.514Z,23.47
2022-08-31T19:52:43.749Z,23.26
2022-08-31T19:55:12.519Z,24.02
2022-08-31T19:57:43.676Z,23.55
2022-08-31T20:00:13.585Z,23.84
2022-08-31T20:02:44.749Z,23.61
2022-08-31T20:05:15.306Z,23.54
2022-08-31T20:07:45.544Z,23.43
2022-08-31T20:10:14.488Z,23.94
2022-08-31T20:12:46.642Z,24.22
2022-08-31T20:15:15.591Z,24.34
2022-08-31T20:17:43.859Z,24.58
2022-08-31T20:20:13.537Z,24.59
2022-08-31T20:22:41.913Z,24.51
2022-08-31T20:25:18.062Z,24.02
2022-08-31T20:27:50.461Z,24.57
2022-08-31T20:30:19.530Z,24.45
2022-08-31T20:32:47.879Z,24.78
2022-08-31T20:35:16.413Z,24.08
2022-08-31T20:37:46.835Z,24.67
2022-08-31T20:40:17.341Z,24.16
2022-08-31T20:42:46.357Z,24.36
2022-08-31T20:45:20.762Z,23.95
2022-08-31T20:48:06.528Z,24.23
2022-08-31T20:50:35.849Z,24.70
2022-08-31T20:53:07.201Z,24.31
2022-08-31T20:55:37.433Z,24.27
2022-08-31T20:58:06.799Z,24.81
2022-08-31T21:00:34.897Z,24.92
2022-08-31T21:03:03.888Z,24.77
2022-08-31T21:05:38.475Z,24.79
2022-08-31T21:08:07.074Z,24.76
2022-08-31T21:10:38.713Z,24.53
2022-08-31T21:13:13.068Z,24.08
2022-08-31T21:15:44.195Z,24.06
2022-08-31T21:18:13.021Z,24.74
2022-08-31T21:20:41.151Z,25.07
2022-08-31T21:23:10.658Z,25.13
2022-08-31T21:25:45.312Z,24.00
2022-08-31T21:28:17.602Z,24.43
2022-08-31T21:30:47.308Z,25.03
2022-08-31T21:33:16.427Z,24.90
2022-08-31T21:35:44.676Z,24.53
2022-08-31T21:38:13.516Z,24.86
2022-08-31T21:40:49.770Z,23.92
2022-08-31T21:43:18.268Z,24.35
2022-08-31T21:45:47.010Z,24.34
2022-08-31T21:48:15.262Z,24.34
2022-08-31T21:50:43.950Z,24.39
2022-08-31T21:53:13.058Z,24.29
2022-08-31T21:55:41.104Z,24.13
2022-08-31T21:58:11.172Z,23.76
2022-08-31T22:00:42.313Z,23.65
2022-08-31T22:03:12.354Z,24.09
2022-08-31T22:05:41.802Z,23.98
2022-08-31T22:08:10.041Z,24.64
2022-08-31T22:10:41.147Z,24.35
2022-08-31T22:13:11.500Z,23.36
2022-08-31T22:15:41.308Z,24.71
2022-08-31T22:18:58.078Z,24.39
2022-08-31T22:21:00.330Z,24.98
2022-08-31T22:23:29.096Z,25.08
2022-08-31T22:25:57.654Z,25.72
2022-08-31T22:28:27.877Z,25.32
2022-08-31T22:30:56.192Z,25.55
2022-08-31T22:33:24.483Z,25.62
2022-08-31T22:35:52.891Z,25.32
2022-08-31T22:38:21.166Z,25.58
2022-08-31T22:40:51.011Z,25.92
2022-08-31T22:43:19.618Z,25.82
2022-08-31T22:45:49.636Z,25.79
2022-08-31T22:48:17.898Z,26.16
2022-08-31T22:50:46.445Z,26.30
2022-08-31T22:53:14.950Z,26.32
2022-08-31T22:55:43.271Z,26.57
2022-08-31T22:58:12.554Z,26.32
2022-08-31T23:00:41.115Z,26.74
2022-08-31T23:03:13.700Z,26.91
2022-08-31T23:05:43.637Z,27.22
2022-08-31T23:08:12.520Z,27.17
2022-08-31T23:10:41.424Z,27.12
2022-08-31T23:13:09.719Z,27.13
2022-08-31T23:15:38.538Z,26.98
2022-08-31T23:18:10.718Z,27.20
2022-08-31T23:20:42.017Z,26.73
2022-08-31T23:23:10.646Z,27.12
2022-08-31T23:25:40.445Z,27.35
2022-08-31T23:28:08.800Z,27.55
2022-08-31T23:30:38.334Z,27.51
2022-08-31T23:33:07.024Z,27.83
2022-08-31T23:35:35.465Z,27.78
2022-08-31T23:38:05.040Z,27.88
2022-08-31T23:40:34.299Z,27.55
2022-08-31T23:43:04.044Z,27.94
2022-08-31T23:45:33.334Z,27.85
2022-08-31T23:48:02.253Z,28.43
2022-08-31T23:50:30.510Z,28.34
2022-08-31T23:52:58.719Z,28.10
2022-08-31T23:55:31.313Z,27.88
2022-08-31T23:57:59.766Z,28.28
